createdAt,value
2022-08-07T00:01:43.492Z,21.65
2022-08-07T00:03:25.586Z,21.63
2022-08-07T00:05:24.403Z,21.62
2022-08-07T00:07:24.309Z,21.62
2022-08-07T00:09:29.304Z,21.6
2022-08-07T00:12:58.074Z,21.55
2022-08-07T00:14:48.841Z,21.48
2022-08-07T00:16:48.818Z,21.44
2022-08-07T00:18:48.853Z,21.42
2022-08-07T00:20:48.858Z,21.42
2022-08-07T00:22:51.536Z,21.19
2022-08-07T00:24:48.831Z,21.29
2022-08-07T00:27:52.041Z,21.25
2022-08-07T00:29:44.694Z,21.21
2022-08-07T00:31:44.987Z,21.2
2022-08-07T00:33:47.528Z,21.1
2022-08-07T00:35:49.551Z,21.08
2022-08-07T00:37:47.864Z,21.08
2022-08-07T00:39:44.979Z,21.08
2022-08-07T00:42:56.882Z,21.14
2022-08-07T00:44:56.901Z,21.19
2022-08-07T00:46:57.027Z,21.12
2022-08-07T00:48:56.825Z,21.1
2022-08-07T00:50:56.875Z,21.03
2022-08-07T00:52:56.900Z,21.08
2022-08-07T00:54:56.814Z,21.1
2022-08-07T00:57:44.503Z,20.96
2022-08-07T00:59:43.454Z,20.91
2022-08-07T01:01:44.675Z,20.92
2022-08-07T01:03:55.263Z,20.96
2022-08-07T01:05:43.452Z,21
2022-08-07T01:07:43.458Z,20.96
2022-08-07T01:10:05.628Z,20.95
2022-08-07T01:12:05.419Z,20.99
2022-08-07T01:13:18.022Z,21.04
2022-08-07T01:15:17.991Z,21.03
2022-08-07T01:17:18.005Z,20.98
2022-08-07T01:19:19.624Z,20.88
2022-08-07T01:21:22.962Z,20.98
2022-08-07T01:23:17.998Z,21.03
2022-08-07T01:25:40.222Z,21.15
2022-08-07T01:28:26.477Z,20.9
2022-08-07T01:30:26.997Z,21.09
2022-08-07T01:32:26.950Z,21.12
2022-08-07T01:34:30.640Z,20.95
2022-08-07T01:36:31.142Z,20.96
2022-08-07T01:38:29.055Z,20.96
2022-08-07T01:40:26.432Z,21.09
2022-08-07T01:43:42.351Z,21.01
2022-08-07T01:45:42.311Z,20.71
2022-08-07T01:48:18.714Z,20.49
2022-08-07T01:49:42.305Z,20.72
2022-08-07T01:52:01.375Z,20.74
2022-08-07T01:54:09.873Z,20.84
2022-08-07T01:55:42.299Z,20.78
2022-08-07T01:58:45.168Z,20.64
2022-08-07T02:00:45.489Z,20.55
2022-08-07T02:03:12.692Z,20.62
2022-08-07T02:04:52.429Z,20.67
2022-08-07T02:06:43.626Z,20.51
2022-08-07T02:08:43.622Z,20.43
2022-08-07T02:10:43.630Z,20.39
2022-08-07T02:14:35.576Z,20.52
2022-08-07T02:16:28.876Z,20.51
2022-08-07T02:18:25.864Z,20.53
2022-08-07T02:20:24.834Z,20.56
2022-08-07T02:22:25.556Z,20.51
2022-08-07T02:24:24.843Z,20.47
2022-08-07T02:26:32.162Z,20.46
2022-08-07T02:29:14.470Z,20.36
2022-08-07T02:31:28.340Z,20.46
2022-08-07T02:33:14.421Z,20.54
2022-08-07T02:35:14.420Z,20.52
2022-08-07T02:37:14.409Z,20.54
2022-08-07T02:39:16.830Z,20.58
2022-08-07T02:41:14.451Z,19.98
2022-08-07T02:44:49.011Z,19.93
2022-08-07T02:46:51.792Z,20.09
2022-08-07T02:48:55.142Z,20.18
2022-08-07T02:50:48.921Z,20.29
2022-08-07T02:52:49.018Z,20.36
2022-08-07T02:54:48.908Z,20.5
2022-08-07T02:56:48.925Z,20.47
2022-08-07T02:59:42.865Z,20.7
2022-08-07T03:01:42.911Z,20.7
2022-08-07T03:03:49.613Z,20.51
2022-08-07T03:05:42.870Z,20.67
2022-08-07T03:07:43.413Z,20.67
2022-08-07T03:09:43.704Z,20.64
2022-08-07T03:11:52.038Z,20.62
2022-08-07T03:15:12.488Z,20.79
2022-08-07T03:17:12.507Z,20.7
2022-08-07T03:19:12.513Z,20.63
2022-08-07T03:21:12.486Z,20.49
2022-08-07T03:23:14.351Z,20.53
2022-08-07T03:25:12.480Z,20.59
2022-08-07T03:27:12.478Z,20.68
2022-08-07T03:30:20.985Z,20.21
2022-08-07T03:32:20.967Z,20.25
2022-08-07T03:34:22.471Z,20.54
2022-08-07T03:36:20.980Z,20.69
2022-08-07T03:38:29.510Z,20.22
2022-08-07T03:40:22.123Z,20.37
2022-08-07T03:42:21.004Z,20.69
2022-08-07T03:45:20.863Z,22.32
2022-08-07T03:47:17.551Z,22.72
2022-08-07T03:49:17.547Z,23.02
2022-08-07T03:51:17.549Z,23.36
2022-08-07T03:53:17.553Z,23.42
2022-08-07T03:55:17.555Z,22.74
2022-08-07T03:58:09.013Z,22.13
2022-08-07T04:00:35.547Z,21.7
2022-08-07T04:02:35.125Z,21.68
2022-08-07T04:04:35.124Z,21.7
2022-08-07T04:06:36.418Z,21.62
2022-08-07T04:08:35.118Z,21.7
2022-08-07T04:10:35.118Z,22.56
2022-08-07T04:12:35.403Z,25.17
2022-08-07T04:15:25.812Z,28
2022-08-07T04:18:04.591Z,28.98
2022-08-07T04:19:34.187Z,29.48
2022-08-07T04:21:25.874Z,29.8
2022-08-07T04:23:25.776Z,29.01
2022-08-07T04:25:28.986Z,27.03
2022-08-07T04:27:26.395Z,25.4
2022-08-07T04:30:36.161Z,24.31
2022-08-07T04:32:34.182Z,23.86
2022-08-07T04:34:37.725Z,23.6
2022-08-07T04:36:33.182Z,23.23
2022-08-07T04:38:33.205Z,23.08
2022-08-07T04:40:33.238Z,23.08
2022-08-07T04:42:33.169Z,23.04
2022-08-07T04:46:12.258Z,22.9
2022-08-07T04:48:11.796Z,22.8
2022-08-07T04:50:11.626Z,22.77
2022-08-07T04:52:11.649Z,22.78
2022-08-07T04:54:11.623Z,22.76
2022-08-07T04:58:08.854Z,22.75
2022-08-07T04:58:26.437Z,22.73
2022-08-07T05:01:30.036Z,22.8
2022-08-07T05:03:39.065Z,22.74
2022-08-07T05:05:52.245Z,22.76
2022-08-07T05:16:37.602Z,21.37
2022-08-07T05:18:37.585Z,21.77
2022-08-07T05:20:37.608Z,22.09
2022-08-07T05:22:37.635Z,22.17
2022-08-07T05:24:39.638Z,22.37
2022-08-07T05:26:37.585Z,22.43
2022-08-07T05:28:40.449Z,22.48
2022-08-07T05:30:03.410Z,22.5
2022-08-07T05:32:03.499Z,22.57
2022-08-07T05:34:04.977Z,22.54
2022-08-07T05:36:03.467Z,22.56
2022-08-07T05:38:08.558Z,22.76
2022-08-07T05:40:05.190Z,22.88
2022-08-07T05:42:07.441Z,23.08
2022-08-07T05:44:08.972Z,23.27
2022-08-07T05:45:47.251Z,23.41
2022-08-07T05:48:00.196Z,23.46
2022-08-07T05:49:40.707Z,23.58
2022-08-07T05:51:39.898Z,23.74
2022-08-07T05:54:08.766Z,23.88
2022-08-07T05:56:02.606Z,23.93
2022-08-07T05:57:41.901Z,24.03
2022-08-07T06:00:34.078Z,24.16
2022-08-07T06:02:34.297Z,24.29
2022-08-07T06:04:33.887Z,24.23
2022-08-07T06:06:33.833Z,24.42
2022-08-07T06:08:36.049Z,24.68
2022-08-07T06:10:33.903Z,24.88
2022-08-07T06:12:33.820Z,25.65
2022-08-07T06:15:45.980Z,26.21
2022-08-07T06:17:50.598Z,26.96
2022-08-07T06:19:47.756Z,27.63
2022-08-07T06:22:11.978Z,27.87
2022-08-07T06:24:38.830Z,28.31
2022-08-07T06:25:54.213Z,28.17
2022-08-07T06:27:54.510Z,27.32
2022-08-07T06:31:00.554Z,26.83
2022-08-07T06:33:00.778Z,26.61
2022-08-07T06:35:00.497Z,26.4
2022-08-07T06:37:02.511Z,26.37
2022-08-07T06:40:12.755Z,26.18
2022-08-07T06:41:00.731Z,26.46
2022-08-07T06:43:00.589Z,27.66
2022-08-07T06:46:44.792Z,28.53
2022-08-07T06:48:44.791Z,28.48
2022-08-07T06:50:47.791Z,28.7
2022-08-07T06:52:45.062Z,28.63
2022-08-07T06:55:30.400Z,28.88
2022-08-07T06:56:48.396Z,29.07
2022-08-07T07:00:11.277Z,29.11
2022-08-07T07:01:19.882Z,29.38
2022-08-07T07:03:19.851Z,29.5
2022-08-07T07:06:04.538Z,29.48
2022-08-07T07:07:58.922Z,29.65
2022-08-07T07:09:19.865Z,29.69
2022-08-07T07:12:07.237Z,29.93
2022-08-07T07:13:40.709Z,30.06
2022-08-07T07:16:56.626Z,30.1
2022-08-07T07:18:56.571Z,30.17
2022-08-07T07:20:56.553Z,30.25
2022-08-07T07:24:06.890Z,30.51
2022-08-07T07:24:58.615Z,30.68
2022-08-07T07:26:56.596Z,30.8
2022-08-07T07:29:38.747Z,30.68
2022-08-07T07:31:39.743Z,30.72
2022-08-07T07:33:34.507Z,30.97
2022-08-07T07:35:43.873Z,31.08
2022-08-07T07:37:45.652Z,31.13
2022-08-07T07:39:35.765Z,31.19
2022-08-07T07:41:50.611Z,31.31
2022-08-07T07:43:47.626Z,31.19
2022-08-07T07:47:00.387Z,31.07
2022-08-07T07:49:00.092Z,30.45
2022-08-07T07:50:56.512Z,30.82
2022-08-07T07:52:56.552Z,30.9
2022-08-07T07:54:56.492Z,31.3
2022-08-07T07:56:57.350Z,31.88
2022-08-07T07:58:56.495Z,32
2022-08-07T08:02:01.399Z,31.37
2022-08-07T08:04:06.747Z,30.68
2022-08-07T08:05:57.628Z,31.78
2022-08-07T08:08:00.127Z,32.37
2022-08-07T08:10:05.229Z,32.34
2022-08-07T08:11:59.535Z,31.97
2022-08-07T08:13:57.720Z,30.95
2022-08-07T08:17:14.118Z,29.64
2022-08-07T08:19:10.053Z,29.55
2022-08-07T08:21:07.750Z,29.98
2022-08-07T08:23:08.110Z,30.5
2022-08-07T08:25:11.482Z,31.64
2022-08-07T08:27:09.297Z,30.56
2022-08-07T08:29:08.242Z,29.73
2022-08-07T08:32:42.621Z,30.55
2022-08-07T08:34:42.604Z,30.68
2022-08-07T08:36:42.648Z,30.63
2022-08-07T08:38:42.615Z,31.15
2022-08-07T08:40:43.808Z,31.55
2022-08-07T08:42:42.612Z,31.49
2022-08-07T08:44:44.862Z,30.18
2022-08-07T08:47:52.341Z,30.34
2022-08-07T08:50:02.324Z,30.03
2022-08-07T08:52:01.183Z,29.7
2022-08-07T08:53:50.365Z,29.52
2022-08-07T08:55:53.980Z,29.7
2022-08-07T08:57:50.356Z,29.32
2022-08-07T08:59:50.463Z,29.04
2022-08-07T09:02:34.888Z,28.57
2022-08-07T09:04:25.823Z,29.23
2022-08-07T09:06:22.904Z,29
2022-08-07T09:08:24.080Z,28.07
2022-08-07T09:10:22.886Z,28.87
2022-08-07T09:12:30.729Z,29.7
2022-08-07T09:14:22.866Z,29.3
2022-08-07T09:16:26.837Z,29.3
2022-08-07T09:17:58.833Z,29.58
2022-08-07T09:19:55.094Z,29.5
2022-08-07T09:21:58.426Z,29.7
2022-08-07T09:24:29.920Z,30.15
2022-08-07T09:25:53.354Z,29.69
2022-08-07T09:27:54.863Z,29.75
2022-08-07T09:30:02.989Z,29.48
2022-08-07T09:32:53.995Z,29.97
2022-08-07T09:38:28.197Z,29.16
2022-08-07T09:40:28.315Z,29.18
2022-08-07T09:42:33.057Z,29.98
2022-08-07T09:44:45.257Z,29.84
2022-08-07T09:47:26.620Z,30.06
2022-08-07T09:48:29.937Z,29.63
2022-08-07T09:50:30.009Z,29.53
2022-08-07T09:52:33.288Z,30.11
2022-08-07T09:54:22.201Z,29.59
2022-08-07T09:56:33.908Z,29.55
2022-08-07T09:58:32.106Z,29.65
2022-08-07T10:00:24.299Z,29.3
2022-08-07T10:02:24.196Z,29.84
2022-08-07T10:04:28.014Z,29.97
2022-08-07T10:07:52.504Z,30.31
2022-08-07T10:09:59.563Z,29.61
2022-08-07T10:12:00.819Z,30.04
2022-08-07T10:13:55.695Z,30.98
2022-08-07T10:15:44.712Z,31.2
2022-08-07T10:18:00.575Z,31.34
2022-08-07T10:19:43.050Z,30.5
2022-08-07T10:22:46.668Z,31.34
2022-08-07T10:24:46.640Z,31.38
2022-08-07T10:26:51.723Z,31.36
2022-08-07T10:28:49.536Z,31.21
2022-08-07T10:30:46.596Z,30.37
2022-08-07T10:32:51.749Z,30.24
2022-08-07T10:34:46.699Z,30.46
2022-08-07T10:37:48.449Z,30.61
2022-08-07T10:39:41.100Z,30.22
2022-08-07T10:41:47.743Z,31.22
2022-08-07T10:43:34.592Z,31.44
2022-08-07T10:45:44.265Z,31.78
2022-08-07T10:47:50.706Z,30.93
2022-08-07T10:49:45.579Z,31.7
2022-08-07T10:52:48.690Z,31.88
2022-08-07T10:54:53.327Z,32.49
2022-08-07T10:56:44.965Z,31.41
2022-08-07T10:58:46.010Z,31.12
2022-08-07T11:00:50.296Z,30.04
2022-08-07T11:02:48.925Z,30.48
2022-08-07T11:04:45.667Z,30.98
2022-08-07T11:08:11.827Z,30.72
2022-08-07T11:10:11.025Z,30.57
2022-08-07T11:12:09.721Z,30.17
2022-08-07T11:14:43.185Z,31.19
2022-08-07T11:16:09.693Z,30.9
2022-08-07T11:18:09.710Z,30.84
2022-08-07T11:20:09.742Z,30.16
2022-08-07T11:23:30.464Z,30.18
2022-08-07T11:25:27.991Z,29.94
2022-08-07T11:27:33.628Z,30.39
2022-08-07T11:29:40.679Z,30.14
2022-08-07T11:31:28.010Z,30.37
2022-08-07T11:33:53.425Z,30.46
2022-08-07T11:35:27.972Z,30.56
2022-08-07T11:38:10.036Z,30.77
2022-08-07T11:40:03.628Z,30.18
2022-08-07T11:42:02.306Z,29.37
2022-08-07T11:44:11.302Z,30.06
2022-08-07T11:46:01.058Z,30.43
2022-08-07T11:48:02.137Z,30.44
2022-08-07T11:50:30.048Z,31.78
2022-08-07T11:53:16.597Z,31.46
2022-08-07T11:55:18.764Z,30.98
2022-08-07T11:57:16.571Z,30.63
2022-08-07T12:00:08.424Z,30.64
2022-08-07T12:01:20.074Z,30.79
2022-08-07T12:03:41.115Z,30.42
2022-08-07T12:05:28.983Z,30.32
2022-08-07T12:08:25.561Z,30.74
2022-08-07T12:10:23.202Z,30.16
2022-08-07T12:12:21.894Z,30.21
2022-08-07T12:14:21.730Z,29.77
2022-08-07T12:16:29.655Z,29.42
2022-08-07T12:18:22.154Z,29.57
2022-08-07T12:20:30.560Z,29.4
2022-08-07T12:24:05.194Z,29.55
2022-08-07T12:26:00.501Z,29.95
2022-08-07T12:28:03.924Z,30.72
2022-08-07T12:29:46.897Z,29.57
2022-08-07T12:31:52.617Z,29.38
2022-08-07T12:33:56.306Z,29.54
2022-08-07T12:35:48.051Z,29.77
2022-08-07T12:39:09.316Z,29.96
2022-08-07T12:41:05.481Z,30.47
2022-08-07T12:43:09.299Z,30.5
2022-08-07T12:45:05.811Z,30.56
2022-08-07T12:47:06.246Z,30.47
2022-08-07T12:49:09.953Z,30.77
2022-08-07T12:51:12.817Z,30.21
2022-08-07T12:54:02.441Z,29.26
2022-08-07T12:56:03.173Z,29.28
2022-08-07T12:58:00.556Z,29.5
2022-08-07T12:59:54.065Z,30.35
2022-08-07T13:01:46.257Z,29.97
2022-08-07T13:03:56.420Z,29.63
2022-08-07T13:06:04.183Z,29.45
2022-08-07T13:10:10.962Z,29.37
2022-08-07T13:11:17.608Z,29.29
2022-08-07T13:13:46.510Z,29.88
2022-08-07T13:15:23.348Z,30.43
2022-08-07T13:17:18.253Z,29.17
2022-08-07T13:19:18.295Z,28.79
2022-08-07T13:21:23.578Z,29.19
2022-08-07T13:24:25.723Z,29.23
2022-08-07T13:26:25.657Z,29.44
2022-08-07T13:28:25.137Z,29.82
2022-08-07T13:30:40.685Z,29.91
2022-08-07T13:32:32.164Z,29.89
2022-08-07T13:34:32.478Z,29.38
2022-08-07T13:36:25.830Z,29.67
2022-08-07T13:39:28.159Z,29.55
2022-08-07T13:41:17.770Z,29.14
2022-08-07T13:43:17.788Z,29.68
2022-08-07T13:45:21.156Z,29.83
2022-08-07T13:48:05.273Z,29.4
2022-08-07T13:50:32.447Z,29.52
2022-08-07T13:51:27.893Z,29.81
2022-08-07T13:54:51.236Z,29.47
2022-08-07T13:56:51.570Z,30.03
2022-08-07T13:58:56.647Z,29.94
2022-08-07T14:00:54.038Z,29.86
2022-08-07T14:02:54.072Z,29.91
2022-08-07T14:04:51.571Z,29.49
2022-08-07T14:06:50.995Z,28.93
2022-08-07T14:10:01.048Z,29.08
2022-08-07T14:11:53.082Z,28.77
2022-08-07T14:13:45.035Z,29
2022-08-07T14:15:42.718Z,28.81
2022-08-07T14:18:13.459Z,29.11
2022-08-07T14:20:39.545Z,29.45
2022-08-07T14:22:00.763Z,29.61
2022-08-07T14:25:23.281Z,29.56
2022-08-07T14:28:09.984Z,29.94
2022-08-07T14:30:03.245Z,29.77
2022-08-07T14:31:23.272Z,29.79
2022-08-07T14:33:23.373Z,29.5
2022-08-07T14:35:43.502Z,29.85
2022-08-07T14:37:23.683Z,29.88
2022-08-07T14:40:15.001Z,29.91
2022-08-07T14:42:15.263Z,29.72
2022-08-07T14:43:56.410Z,29.6
2022-08-07T14:45:51.213Z,29.09
2022-08-07T14:47:51.322Z,29.01
2022-08-07T14:49:57.844Z,28.9
2022-08-07T14:52:02.703Z,27.94
2022-08-07T14:54:58.578Z,25.49
2022-08-07T14:56:57.485Z,24.92
2022-08-07T14:58:57.475Z,25.01
2022-08-07T15:00:57.639Z,25.47
2022-08-07T15:02:57.490Z,25.93
2022-08-07T15:04:57.569Z,26.06
2022-08-07T15:06:57.456Z,26.24
2022-08-07T15:08:57.383Z,26.3
2022-08-07T15:10:32.482Z,26.34
2022-08-07T15:12:33.123Z,26.36
2022-08-07T15:14:32.619Z,26.42
2022-08-07T15:16:33.986Z,26.23
2022-08-07T15:18:33.743Z,26.23
2022-08-07T15:20:54.827Z,26.35
2022-08-07T15:22:33.347Z,26.4
2022-08-07T15:25:36.551Z,26.2
2022-08-07T15:27:35.149Z,26.2
2022-08-07T15:30:04.304Z,26.01
2022-08-07T15:31:57.499Z,26.11
2022-08-07T15:33:36.148Z,26.15
2022-08-07T15:36:00.951Z,26.16
2022-08-07T15:38:05.017Z,26.14
2022-08-07T15:40:38.901Z,26.13
2022-08-07T15:42:43.181Z,26.01
2022-08-07T15:44:38.680Z,26.13
2022-08-07T15:46:50.049Z,26.08
2022-08-07T15:52:39.024Z,25.92
2022-08-07T15:55:53.226Z,25.96
2022-08-07T15:57:49.799Z,26.01
2022-08-07T15:59:49.992Z,26
2022-08-07T16:02:01.571Z,26
2022-08-07T16:03:54.381Z,25.97
2022-08-07T16:05:49.854Z,26.05
2022-08-07T16:08:29.340Z,26.04
2022-08-07T16:10:38.192Z,26.02
2022-08-07T16:12:39.099Z,25.99
2022-08-07T16:14:38.224Z,25.97
2022-08-07T16:16:43.594Z,25.81
2022-08-07T16:18:43.790Z,25.87
2022-08-07T16:20:38.190Z,25.91
2022-08-07T16:22:38.142Z,25.91
2022-08-07T16:24:38.467Z,25.89
2022-08-07T16:26:30.362Z,25.72
2022-08-07T16:29:18.149Z,25.79
2022-08-07T16:30:31.280Z,25.76
2022-08-07T16:32:33.319Z,25.68
2022-08-07T16:34:22.078Z,25.63
2022-08-07T16:36:20.200Z,25.6
2022-08-07T16:38:18.594Z,25.56
2022-08-07T16:41:24.058Z,25.34
2022-08-07T16:43:24.155Z,25.22
2022-08-07T16:46:10.984Z,25.15
2022-08-07T16:47:47.468Z,25.07
2022-08-07T16:50:19.494Z,24.93
2022-08-07T16:51:51.988Z,24.8
2022-08-07T16:53:55.810Z,24.74
2022-08-07T16:57:03.276Z,24.57
2022-08-07T16:59:10.406Z,24.52
2022-08-07T17:01:02.368Z,24.45
2022-08-07T17:03:05.004Z,24.32
2022-08-07T17:05:02.247Z,24.21
2022-08-07T17:07:03.053Z,24.14
2022-08-07T17:09:10.110Z,24.13
2022-08-07T17:11:23.353Z,24.08
2022-08-07T17:13:23.287Z,23.98
2022-08-07T17:15:23.414Z,23.87
2022-08-07T17:17:23.406Z,23.85
2022-08-07T17:20:00.434Z,23.74
2022-08-07T17:21:23.210Z,23.7
2022-08-07T17:23:23.187Z,23.69
2022-08-07T17:25:48.094Z,23.62
2022-08-07T17:27:19.704Z,23.55
2022-08-07T17:29:18.411Z,23.45
2022-08-07T17:31:16.818Z,23.44
2022-08-07T17:33:38.940Z,23.3
2022-08-07T17:35:41.627Z,23.28
2022-08-07T17:38:05.341Z,23.16
2022-08-07T17:39:15.358Z,23.08
2022-08-07T17:42:07.585Z,22.97
2022-08-07T17:44:11.948Z,23
2022-08-07T17:46:07.552Z,23.06
2022-08-07T17:48:08.678Z,23.05
2022-08-07T17:50:09.575Z,23.03
2022-08-07T17:52:10.506Z,23.1
2022-08-07T17:54:11.374Z,23.1
2022-08-07T17:57:18.595Z,22.95
2022-08-07T17:59:19.898Z,22.95
2022-08-07T18:01:18.137Z,22.95
2022-08-07T18:03:18.033Z,22.92
2022-08-07T18:05:21.129Z,22.92
2022-08-07T18:07:19.768Z,22.84
2022-08-07T18:09:17.368Z,22.82
2022-08-07T18:12:36.954Z,22.8
2022-08-07T18:14:37.484Z,22.81
2022-08-07T18:16:36.440Z,22.76
2022-08-07T18:18:47.790Z,22.71
2022-08-07T18:21:04.818Z,22.67
2022-08-07T18:22:36.497Z,22.32
2022-08-07T18:24:36.449Z,22.44
2022-08-07T18:27:40.518Z,22.51
2022-08-07T18:30:04.799Z,22.55
2022-08-07T18:31:40.767Z,22.52
2022-08-07T18:33:55.485Z,22.56
2022-08-07T18:35:50.384Z,22.54
2022-08-07T18:38:54.098Z,22.52
2022-08-07T18:40:06.276Z,22.51
2022-08-07T18:42:35.691Z,22.38
2022-08-07T18:44:46.078Z,22.36
2022-08-07T18:46:35.627Z,22.25
2022-08-07T18:49:23.832Z,22.18
2022-08-07T18:50:43.793Z,22.26
2022-08-07T18:52:51.985Z,22.34
2022-08-07T18:54:35.679Z,22.37
2022-08-07T18:56:35.644Z,22.33
2022-08-07T18:58:19.002Z,22.19
2022-08-07T19:00:32.179Z,22.2
2022-08-07T19:02:33.317Z,22.25
2022-08-07T19:04:29.737Z,22.17
2022-08-07T19:06:18.908Z,22.09
2022-08-07T19:08:19.273Z,22.06
2022-08-07T19:10:21.398Z,21.95
2022-08-07T19:13:28.956Z,22.1
2022-08-07T19:16:04.093Z,22.16
2022-08-07T19:17:57.326Z,22.14
2022-08-07T19:19:31.888Z,22.13
2022-08-07T19:21:42.989Z,22.08
2022-08-07T19:23:29.964Z,22.05
2022-08-07T19:26:22.385Z,22.04
2022-08-07T19:28:31.186Z,22.03
2022-08-07T19:30:59.197Z,22
2022-08-07T19:32:25.816Z,21.9
2022-08-07T19:34:32.885Z,21.86
2022-08-07T19:36:27.455Z,21.87
2022-08-07T19:38:18.710Z,21.84
2022-08-07T19:40:30.630Z,21.86
2022-08-07T19:43:52.254Z,21.92
2022-08-07T19:46:05.160Z,21.93
2022-08-07T19:47:48.777Z,21.82
2022-08-07T19:49:56.318Z,21.79
2022-08-07T19:51:51.509Z,21.79
2022-08-07T19:54:29.400Z,21.77
2022-08-07T19:55:57.128Z,21.76
2022-08-07T19:58:55.753Z,21.65
2022-08-07T20:00:55.952Z,21.47
2022-08-07T20:02:55.818Z,21.52
2022-08-07T20:04:56.159Z,21.51
2022-08-07T20:06:55.713Z,21.57
2022-08-07T20:08:55.725Z,21.6
2022-08-07T20:10:55.906Z,21.68
2022-08-07T20:14:31.557Z,21.65
2022-08-07T20:16:32.034Z,21.59
2022-08-07T20:18:32.107Z,21.61
2022-08-07T20:20:26.357Z,21.61
2022-08-07T20:22:26.600Z,21.53
2022-08-07T20:24:28.589Z,21.59
2022-08-07T20:26:30.011Z,21.53
2022-08-07T20:29:10.293Z,21.49
2022-08-07T20:31:03.102Z,21.48
2022-08-07T20:33:03.145Z,21.46
2022-08-07T20:35:06.168Z,21.43
2022-08-07T20:37:03.093Z,21.42
2022-08-07T20:39:30.729Z,21.39
2022-08-07T20:41:03.535Z,21.26
2022-08-07T20:44:31.312Z,21.31
2022-08-07T20:46:33.591Z,21.29
2022-08-07T20:48:33.851Z,21.23
2022-08-07T20:50:31.316Z,21.12
2022-08-07T20:52:50.979Z,21.06
2022-08-07T20:54:31.907Z,20.99
2022-08-07T20:56:32.183Z,20.97
2022-08-07T20:59:27.389Z,20.86
2022-08-07T21:01:19.526Z,20.79
2022-08-07T21:03:19.058Z,20.82
2022-08-07T21:05:17.495Z,20.86
2022-08-07T21:07:19.556Z,20.87
2022-08-07T21:09:17.593Z,20.82
2022-08-07T21:11:17.498Z,20.89
2022-08-07T21:15:02.852Z,20.94
2022-08-07T21:17:06.951Z,20.82
2022-08-07T21:19:02.797Z,20.79
2022-08-07T21:21:02.783Z,20.84
2022-08-07T21:23:07.456Z,20.74
2022-08-07T21:25:04.622Z,20.81
2022-08-07T21:27:02.816Z,20.77
2022-08-07T21:29:30.294Z,20.68
2022-08-07T21:31:31.530Z,20.65
2022-08-07T21:33:29.430Z,20.71
2022-08-07T21:35:34.446Z,20.65
2022-08-07T21:37:26.273Z,20.53
2022-08-07T21:39:44.639Z,20.48
2022-08-07T21:41:26.213Z,20.64
2022-08-07T21:43:26.206Z,20.71
2022-08-07T21:46:05.039Z,20.71
2022-08-07T21:47:29.429Z,20.69
2022-08-07T21:49:29.320Z,20.53
2022-08-07T21:51:31.947Z,20.48
2022-08-07T21:53:29.346Z,20.43
2022-08-07T21:55:30.072Z,20.36
2022-08-07T21:57:31.690Z,20.35
2022-08-07T22:00:29.684Z,20.27
2022-08-07T22:02:30.013Z,20.34
2022-08-07T22:04:29.675Z,20.36
2022-08-07T22:06:31.039Z,20.44
2022-08-07T22:08:29.694Z,20.37
2022-08-07T22:10:32.891Z,20.36
2022-08-07T22:12:31.368Z,20.38
2022-08-07T22:16:40.797Z,20.31
2022-08-07T22:17:09.746Z,20.24
2022-08-07T22:19:09.806Z,20.28
2022-08-07T22:21:11.541Z,20.34
2022-08-07T22:23:09.970Z,20.3
2022-08-07T22:25:09.746Z,20.29
2022-08-07T22:27:09.804Z,20.35
2022-08-07T22:29:13.927Z,20.27
2022-08-07T22:30:30.781Z,20.26
2022-08-07T22:32:31.032Z,20.23
2022-08-07T22:34:31.651Z,20.2
2022-08-07T22:36:30.777Z,20.24
2022-08-07T22:38:30.788Z,20.24
2022-08-07T22:40:30.779Z,20.08
2022-08-07T22:42:30.799Z,20.17
2022-08-07T22:46:05.040Z,20.17
2022-08-07T22:47:27.685Z,20.1
2022-08-07T22:49:27.676Z,20.08
2022-08-07T22:51:31.844Z,20.06
2022-08-07T22:54:05.996Z,20.13
2022-08-07T22:55:29.826Z,20.14
2022-08-07T22:57:27.695Z,20.17
2022-08-07T22:59:27.712Z,20.07
2022-08-07T23:01:42.252Z,20.02
2022-08-07T23:03:32.487Z,20.08
2022-08-07T23:06:05.240Z,19.98
2022-08-07T23:07:40.077Z,19.85
2022-08-07T23:10:01.256Z,19.83
2022-08-07T23:11:35.328Z,19.91
2022-08-07T23:13:48.154Z,19.84
2022-08-07T23:16:53.269Z,19.86
2022-08-07T23:18:42.667Z,19.78
2022-08-07T23:20:52.509Z,19.83
2022-08-07T23:22:42.138Z,19.76
2022-08-07T23:24:45.564Z,19.71
2022-08-07T23:26:42.139Z,19.72
2022-08-07T23:28:44.116Z,19.72
2022-08-07T23:31:42.817Z,19.75
2022-08-07T23:34:24.658Z,19.69
2022-08-07T23:35:37.426Z,19.73
2022-08-07T23:37:33.327Z,19.75
2022-08-07T23:39:36.000Z,19.8
2022-08-07T23:41:33.874Z,19.79
2022-08-07T23:43:37.774Z,19.69
2022-08-07T23:46:45.598Z,19.6
2022-08-07T23:48:47.032Z,19.7
2022-08-07T23:50:45.598Z,19.77
2022-08-07T23:52:59.390Z,19.76
2022-08-07T23:54:46.204Z,19.8
2022-08-07T23:56:53.395Z,19.78
2022-08-07T23:58:45.586Z,19.73
